Latest Weather Observations for Geraldton Airport

IDW60801

Issued at 5:32 pm WST Tuesday 30 June 2015 (issued every 30 minutes, with the page automatically refreshed every 10 minutes)

About weather observations | Map of weather stations | Latest weather observations for WA | Other Formats
Station Details ID: 008315 Name: GERALDTON AIRPORT Lat: -28.80 Lon: 114.70 Height: 29.7 m
Data from the previous 72 hours. | See also: Recent months at Geraldton Airport
Date/Time
WST
Temp
°C
App
Temp
°C
Dew
Point
Rel
Hum
%
Delta-T
°C
Wind Press
QNH
hPa
Press
MSL
hPa
Rain
since 9 am
mm
Dir
 
Spd
km/h
Gust
km/h
Spd
kts
Gust
kts
30/05:30pm 18.3 18.8 11.5 64 3.7 CALM 0 0 0 0 1022.1 - 0.0
30/05:00pm 19.5 18.1 10.9 57 4.7 W 9 11 5 6 1021.8 - 0.0
30/04:30pm 20.1 16.9 8.6 47 6.0 W 15 19 8 10 1021.7 - 0.0
30/04:00pm 20.6 17.7 8.3 45 6.4 W 13 15 7 8 1021.4 - 0.0
30/03:30pm 21.4 18.3 8.7 44 6.7 WSW 15 19 8 10 1021.4 - 0.0
30/03:00pm 23.5 21.3 6.1 32 8.8 WNW 7 13 4 7 1021.1 1021.2 0.0
30/02:30pm 23.9 20.4 3.6 26 9.9 NW 11 20 6 11 1021.5 - 0.0
30/02:00pm 23.0 18.9 4.6 30 9.1 NW 15 17 8 9 1021.4 - 0.0
30/01:30pm 22.5 19.5 5.8 34 8.4 NW 11 19 6 10 1021.6 - 0.0
30/01:00pm 22.1 17.7 4.9 32 8.5 NNE 17 20 9 11 1021.7 - 0.0
30/12:30pm 22.2 16.9 3.1 28 9.1 N 20 26 11 14 1022.0 - 0.0
30/11:30am 20.9 14.9 3.5 31 8.3 N 24 30 13 16 1023.0 - 0.0
30/10:30am 17.8 13.6 5.9 45 5.8 N 17 22 9 12 1023.7 - 0.0
30/10:00am 16.5 13.5 7.6 55 4.4 N 13 19 7 10 1023.9 - 0.0
30/09:30am 13.3 10.1 8.5 72 2.4 NNE 15 19 8 10 1023.8 - 0.0
30/09:00am 12.0 9.3 7.5 74 2.2 NNE 11 15 6 8 1024.1 1024.2 0.0
30/08:00am 11.0 6.6 7.3 78 1.8 NNE 20 24 11 13 1023.7 - 0.0
30/07:30am 10.8 6.1 7.7 81 1.5 NNE 22 26 12 14 1023.2 - 0.0
30/07:00am 10.5 6.4 8.5 87 1.0 NNE 20 24 11 13 1023.0 - 0.0
30/06:30am 10.8 6.9 9.4 91 0.7 NNE 20 26 11 14 1022.7 - 0.0
30/06:00am 10.7 8.2 9.7 93 0.5 NNE 13 17 7 9 1022.8 1022.9 0.0
30/05:30am 10.5 10.0 9.5 93 0.5 SSE 2 7 1 4 1022.9 - 0.0
30/05:00am 10.7 7.1 10.0 95 0.4 NNE 19 22 10 12 1022.6 - 0.0
30/04:30am 10.9 7.2 10.2 95 0.4 NNE 20 24 11 13 1022.6 - 0.0
30/04:00am 11.7 7.8 10.9 95 0.4 NNE 22 26 12 14 1022.6 - 0.0
30/03:30am 12.3 8.6 11.4 94 0.5 NNE 22 30 12 16 1022.5 - 0.0
30/03:00am 11.7 8.2 10.9 95 0.4 NNE 20 26 11 14 1022.4 1022.5 0.0
30/02:30am 11.2 7.2 10.5 95 0.4 NNE 22 28 12 15 1022.4 - 0.0
30/02:00am 11.4 8.1 10.9 97 0.3 NE 19 22 10 12 1022.8 - 0.0
30/01:30am 11.3 8.3 10.7 96 0.3 NE 17 19 9 10 1022.9 - 0.0
30/01:00am 11.6 9.8 10.9 95 0.4 NNE 11 13 6 7 1023.1 - 0.0
30/12:30am 11.6 9.5 11.0 96 0.3 NNE 13 17 7 9 1022.9 - 0.0
30/12:00am 11.6 8.3 11.0 96 0.3 NE 19 20 10 11 1022.8 1022.9 0.0
 
Date/Time
WST
Temp
°C
App
Temp
°C
Dew
Point
Rel
Hum
%
Delta-T
°C
Wind Press
QNH
hPa
Press
MSL
hPa
Rain
since 9 am
mm
Dir
 
Spd
km/h
Gust
km/h
Spd
kts
Gust
kts
29/11:30pm 12.0 9.2 11.2 95 0.4 NNE 17 19 9 10 1022.8 - 0.0
29/11:00pm 12.3 9.6 11.6 95 0.4 NNE 17 20 9 11 1023.0 - 0.0
29/10:30pm 12.8 10.6 12.1 95 0.4 NNE 15 20 8 11 1023.2 - 0.0
29/10:00pm 12.0 9.2 11.4 96 0.3 NNE 17 20 9 11 1023.1 - 0.0
29/09:30pm 12.0 9.6 11.3 95 0.4 NE 15 19 8 10 1022.9 - 0.0
29/09:00pm 13.1 11.3 12.2 94 0.5 NNE 13 15 7 8 1022.8 1022.9 0.0
29/08:30pm 13.5 11.8 12.4 93 0.6 N 13 15 7 8 1022.7 - 0.0
29/08:00pm 13.7 12.0 12.6 93 0.6 NNE 13 15 7 8 1022.7 - 0.0
29/07:30pm 13.9 12.7 12.7 92 0.7 N 11 13 6 7 1022.8 - 0.0
29/07:00pm 14.0 12.8 12.9 93 0.6 NNE 11 11 6 6 1022.8 - 0.0
29/06:30pm 15.1 14.4 13.1 88 1.1 NNE 9 13 5 7 1022.7 - 0.0
29/06:00pm 16.3 16.2 14.0 86 1.3 N 7 7 4 4 1022.7 1022.8 0.0
29/05:30pm 18.3 18.5 14.7 79 2.1 NNW 7 7 4 4 1022.6 - 0.0
29/05:00pm 20.2 18.7 14.2 68 3.5 WNW 15 17 8 9 1022.6 - 0.0
29/04:30pm 21.0 19.0 13.9 64 4.1 W 17 20 9 11 1022.4 - 0.0
29/04:00pm 21.2 19.0 14.8 67 3.8 W 20 24 11 13 1022.5 - 0.0
29/03:30pm 21.6 18.8 14.4 63 4.2 W 22 28 12 15 1022.5 - 0.0
29/03:00pm 21.8 19.6 14.4 63 4.3 W 19 26 10 14 1022.3 1022.4 0.0
29/02:30pm 22.6 20.7 11.9 50 6.0 WNW 13 19 7 10 1022.2 - 0.0
29/02:00pm 22.5 20.1 12.7 54 5.6 WNW 17 22 9 12 1022.3 - 0.0
29/01:30pm 22.9 20.5 12.8 53 5.8 WNW 17 22 9 12 1022.4 - 0.0
29/01:00pm 23.3 20.3 12.0 49 6.4 NW 19 24 10 13 1022.6 - 0.0
29/12:30pm 23.0 18.6 6.5 34 8.5 N 19 24 10 13 1023.0 - 0.0
29/12:00pm 21.7 17.2 6.0 36 7.9 NNE 19 26 10 14 1023.6 1023.7 0.0
29/11:30am 20.5 15.1 4.6 35 7.7 N 22 28 12 15 1024.1 - 0.0
29/11:00am 19.7 13.6 4.8 37 7.2 N 26 32 14 17 1024.6 - 0.0
29/10:30am 18.2 11.6 4.3 39 6.6 N 28 35 15 19 1024.9 - 0.0
29/10:00am 16.9 10.3 4.3 43 5.9 NNE 28 35 15 19 1025.1 - 0.0
29/09:30am 15.4 9.8 5.6 52 4.7 NNE 24 30 13 16 1025.1 - 0.0
29/09:00am 14.1 8.3 4.6 52 4.4 NNE 24 32 13 17 1024.9 1025.0 0.0
29/08:30am 13.5 6.9 4.0 52 4.3 NNE 28 35 15 19 1024.7 - 0.0
29/08:00am 11.5 6.1 4.4 61 3.2 NNE 22 30 12 16 1024.3 - 0.0
29/07:30am 9.8 4.0 4.4 69 2.4 NNE 24 30 13 16 1024.0 - 0.0
29/07:00am 9.6 3.8 4.2 69 2.4 NNE 24 30 13 16 1023.8 - 0.0
29/06:30am 9.2 3.0 4.5 72 2.1 NNE 26 30 14 16 1023.7 - 0.0
29/06:00am 9.9 3.7 4.5 69 2.4 NNE 26 30 14 16 1023.5 1023.6 0.0
29/05:30am 12.2 6.7 4.0 57 3.7 NNE 22 24 12 13 1023.4 - 0.0
29/05:00am 12.9 7.0 3.9 54 4.1 N 24 26 13 14 1023.3 - 0.0
29/04:30am 12.4 7.8 3.6 55 3.9 N 17 24 9 13 1023.3 - 0.0
29/04:00am 12.7 7.1 3.7 54 4.0 N 22 26 12 14 1023.3 - 0.0
29/03:30am 12.0 7.5 4.3 59 3.5 N 17 20 9 11 1023.3 - 0.0
29/03:00am 11.4 7.7 4.3 61 3.2 N 13 17 7 9 1023.1 1023.2 0.0
29/02:30am 11.5 7.8 4.4 61 3.2 NNW 13 15 7 8 1023.1 - 0.0
29/02:00am 12.6 8.0 3.9 55 3.9 NNW 17 20 9 11 1023.5 - 0.0
29/01:30am 13.1 7.3 4.4 55 4.0 N 24 28 13 15 1023.5 - 0.0
29/01:00am 12.1 6.4 4.9 61 3.3 NNE 24 28 13 15 1023.3 - 0.0
29/12:30am 12.3 6.7 5.2 62 3.3 NNE 24 28 13 15 1023.3 - 0.0
29/12:00am 12.9 7.3 5.2 59 3.6 NNE 24 28 13 15 1023.5 1023.6 0.0
 
Date/Time
WST
Temp
°C
App
Temp
°C
Dew
Point
Rel
Hum
%
Delta-T
°C
Wind Press
QNH
hPa
Press
MSL
hPa
Rain
since 9 am
mm
Dir
 
Spd
km/h
Gust
km/h
Spd
kts
Gust
kts
28/11:30pm 13.6 7.9 5.0 56 4.0 NNE 24 28 13 15 1023.5 - 0.0
28/11:00pm 13.6 8.3 5.2 57 3.9 NNE 22 26 12 14 1023.7 - 0.0
28/10:30pm 13.5 8.7 5.8 59 3.6 NNE 20 24 11 13 1023.7 - 0.0
28/10:00pm 12.7 8.6 6.4 65 3.0 NNE 17 19 9 10 1023.9 - 0.0
28/09:30pm 13.6 9.3 6.8 63 3.3 NNE 19 20 10 11 1023.9 - 0.0
28/09:00pm 13.6 9.4 7.5 66 3.0 NNE 19 20 10 11 1023.8 1023.9 0.0
28/08:30pm 12.3 9.8 8.3 76 2.0 NE 11 13 6 7 1023.7 - 0.0
28/08:00pm 13.5 10.5 7.9 69 2.8 NE 13 15 7 8 1023.8 - 0.0
28/07:30pm 15.7 15.1 7.3 57 4.2 CALM 0 6 0 3 1023.6 - 0.0
28/07:00pm 16.3 13.8 6.7 53 4.7 ENE 9 13 5 7 1023.5 - 0.0
28/06:30pm 15.2 13.0 7.8 61 3.7 E 9 11 5 6 1023.3 - 0.0
28/06:00pm 19.0 17.1 6.8 45 6.1 ESE 6 9 3 5 1023.2 1023.3 0.0
28/05:30pm 19.7 18.8 7.8 46 6.1 E 2 9 1 5 1022.8 - 0.0
28/05:00pm 19.5 19.5 11.2 58 4.5 E 2 6 1 3 1022.7 - 0.0
28/04:39pm 18.0 18.2 15.8 87 1.3 ENE 9 11 5 6 1022.6 - 0.0
28/04:30pm 23.3 21.2 8.3 38 8.0 NE 9 13 5 7 1022.6 - 0.0
28/04:00pm 23.9 20.5 6.0 31 9.1 NE 13 19 7 10 1022.7 - 0.0
28/03:30pm 24.5 21.3 6.7 32 9.2 NNE 13 20 7 11 1022.7 - 0.0
28/03:00pm 24.3 20.4 7.0 33 9.0 NE 17 24 9 13 1022.7 1022.8 0.0
28/02:30pm 24.1 19.5 6.6 32 9.0 NE 20 26 11 14 1022.6 - 0.0
28/02:00pm 23.9 19.3 6.6 33 8.9 NNE 20 28 11 15 1022.6 - 0.0
28/01:30pm 23.3 18.2 6.2 33 8.7 NNE 22 28 12 15 1022.8 - 0.0
28/01:00pm 22.7 16.9 6.2 34 8.4 NE 26 32 14 17 1023.2 - 0.0
28/12:30pm 21.9 16.0 5.8 35 8.1 NE 26 33 14 18 1023.8 - 0.0
28/12:00pm 21.0 14.3 5.4 36 7.7 NE 30 35 16 19 1024.2 1024.3 0.0
28/11:30am 20.1 12.6 4.6 36 7.5 NE 33 39 18 21 1024.6 - 0.0
28/11:00am 19.6 13.1 4.9 38 7.1 NNE 28 35 15 19 1024.9 - 0.0
28/10:30am 18.9 11.5 3.8 36 7.1 NE 32 39 17 21 1025.2 - 0.0
28/10:00am 17.7 10.8 4.6 42 6.2 NE 30 37 16 20 1025.4 - 0.0
28/09:30am 17.0 10.4 4.2 42 6.0 ENE 28 37 15 20 1025.4 - 0.0
28/09:00am 15.6 9.8 4.5 47 5.2 ENE 24 33 13 18 1025.5 1025.6 0.0
28/08:30am 14.5 7.8 3.9 49 4.9 ENE 28 33 15 18 1025.4 - 0.0
28/08:00am 13.4 6.7 3.6 51 4.4 NE 28 32 15 17 1025.3 - 0.0
28/07:30am 12.8 6.4 3.1 51 4.3 NE 26 32 14 17 1025.1 - 0.0
28/07:00am 11.9 6.3 3.3 55 3.8 NE 22 26 12 14 1024.8 - 0.0
28/06:30am 12.4 6.3 2.7 51 4.2 NE 24 26 13 14 1024.6 - 0.0
28/06:00am 12.0 7.3 2.9 53 4.0 ENE 17 20 9 11 1024.5 1024.6 0.0
28/05:30am 12.0 7.3 3.2 55 3.9 ENE 17 19 9 10 1024.6 - 0.0
28/05:00am 12.5 7.2 2.9 52 4.2 NE 20 24 11 13 1024.4 - 0.0
28/04:30am 13.1 7.3 2.3 48 4.7 ENE 22 26 12 14 1024.4 - 0.0
28/04:00am 13.5 7.6 1.6 44 5.1 ENE 22 26 12 14 1024.2 - 0.0
28/03:30am 13.3 7.1 1.9 46 4.9 ENE 24 28 13 15 1024.3 - 0.0
28/03:00am 13.1 7.6 2.1 47 4.8 ENE 20 28 11 15 1024.3 1024.4 0.0
28/02:30am 13.9 7.6 1.6 43 5.3 NE 24 30 13 16 1024.6 - 0.0
28/02:00am 13.8 7.5 1.8 44 5.2 NE 24 30 13 16 1024.8 - 0.0
28/01:30am 14.3 8.0 1.7 42 5.5 NE 24 32 13 17 1025.0 - 0.0
28/01:00am 14.4 7.8 2.0 43 5.4 NE 26 32 14 17 1025.0 - 0.0
28/12:30am 14.3 8.5 2.3 44 5.3 NE 22 26 12 14 1025.1 - 0.0
28/12:00am 14.5 8.4 2.5 44 5.3 NE 24 28 13 15 1025.1 1025.2 0.0
 
Date/Time
WST
Temp
°C
App
Temp
°C
Dew
Point
Rel
Hum
%
Delta-T
°C
Wind Press
QNH
hPa
Press
MSL
hPa
Rain
since 9 am
mm
Dir
 
Spd
km/h
Gust
km/h
Spd
kts
Gust
kts
27/11:30pm 13.3 8.7 3.7 52 4.3 NE 17 20 9 11 1025.3 - 0.0
27/11:00pm 13.5 9.6 3.5 51 4.5 ENE 13 19 7 10 1025.3 - 0.0
27/10:30pm 14.9 9.9 3.4 46 5.2 NE 19 24 10 13 1025.3 - 0.0
27/10:00pm 12.4 8.8 4.8 60 3.5 NE 13 17 7 9 1025.4 - 0.0
27/09:30pm 13.6 10.0 5.0 56 4.0 ENE 13 17 7 9 1025.4 - 0.0
27/09:00pm 14.6 11.7 4.4 50 4.7 NE 9 13 5 7 1025.3 1025.4 0.0
27/08:30pm 12.7 11.2 6.6 66 2.9 E 4 9 2 5 1025.0 - 0.0
27/08:00pm 12.1 11.4 6.8 70 2.5 CALM 0 6 0 3 1025.1 - 0.0
27/07:30pm 13.0 9.9 7.2 68 2.8 SE 13 17 7 9 1024.8 - 0.0
27/07:00pm 13.2 10.8 6.8 65 3.1 ESE 9 13 5 7 1024.4 - 0.0
27/06:30pm 14.2 11.1 7.2 63 3.4 E 13 15 7 8 1024.0 - 0.0
27/06:00pm 16.1 12.9 7.0 54 4.5 E 13 13 7 7 1023.7 1023.8 0.0

Other Formats:

Comma delimited format used in spreadsheet applications
http://www.bom.gov.au/fwo/IDW60801/IDW60801.94403.axf

JavaScript Object Notation format (JSON) in row-major order
http://www.bom.gov.au/fwo/IDW60801/IDW60801.94403.json